KOXRKBUR

Guest
Details From KOXR - Oxnard
To KBUR - BOB HOPE
Flight Number -
Tags generated
Created
Modified
Stats Distance 42 nm / 78 km
Max Altitude 4,900 ft / 1,494 m
Waypoints 3
Social Downloads 0
Likes 0
Share VATSIM

Download

Looking for another format? Having issues loading an existing format? Contact us
Advertisement - Login to hide

Notes

Basic altitude profile: - Ascent Rate: 2500ft/min - Ascent Speed: 250kts - Cruise Altitude: 35000ft - Cruise Speed: 420kts - Descent Rate: 1500ft/min - Descent Speed: 250kts Options: - Use NATs: yes - Use PACOTS: yes - Use low airways: yes - Use high airways: yes

Route

KOXR GUYBE KBUR

ID Type Via Altitude Latitude Longitude Leg Dist Tot Dist Heading (true) Name
O KOXR APT - 0 ft / 0 m 34.20082˚ -119.20723˚ - 0 nm - Oxnard
GUYBE FIX - 4,900 ft / 1,494 m 34.19732˚ -118.82265˚ 19 nm 19 nm 91° / 91° -
O KBUR APT - 0 ft / 0 m 34.20048˚ -118.35877˚ 23 nm 42 nm 89° / 90° BOB HOPE

Altitude Profile

Advertisement - Login to hide

KOXR

Details ICAO KOXR (OXR)
Name Oxnard
Region United States
Timezone America/Los_Angeles (UTC-8.0)
Stats Elevation 43 ft / 13 m (AMSL)
Location 34.200819° -119.207233°
Runways 1
Magnetic Variation 12.210° E

METAR

KOXR 171951Z 07017G26KT 10SM FU CLR 19/M08 A2995 RMK AO2 PK WND 05029/1912 SLP142 T01941083

Decode

TAF

TAF KOXR 171733Z 1718/1818 08025G35KT P6SM SKC FM172200 07015G25KT P6SM SKC FM180100 VRB03KT P6SM SKC FM180900 06012KT P6SM SKC

Decode

Departure Runways

ID Width Length Bearing (true) Bearing (mag) Surface Threshold Offset Overrun Length
07 98 ft / 30 m 5,953 ft / 1,815 m 90.53° 78.32° Asphalt 0 ft / 0 m 0 ft / 0 m
25 98 ft / 30 m 5,953 ft / 1,815 m 270.54° 258.33° Asphalt 1,378 ft / 420 m 0 ft / 0 m

KBUR

Details ICAO KBUR (BUR)
Name BOB HOPE
Region United States
Timezone America/Los_Angeles (UTC-8.0)
Stats Elevation 778 ft / 237 m (AMSL)
Location 34.200475° -118.358767°
Runways 2
Magnetic Variation 12.046° E

METAR

KBUR 171953Z 35013KT 10SM BLDU CLR 21/M06 A2991 RMK AO2 SLP116 T02061061

Decode

TAF

TAF AMD KBUR 171928Z 1719/1818 34010G20KT P6SM SKC FM172200 35010KT P6SM SKC FM180100 VRB03KT P6SM SKC

Decode

Destination Runways

ID Width Length Bearing (true) Bearing (mag) Surface Threshold Offset Overrun Length
08 151 ft / 46 m 5,835 ft / 1,779 m 90.92° 78.87° Asphalt 0 ft / 0 m 259 ft / 79 m
15 151 ft / 46 m 6,962 ft / 2,122 m 167.12° 155.07° Asphalt 909 ft / 277 m 0 ft / 0 m
26 151 ft / 46 m 5,835 ft / 1,779 m 270.93° 258.88° Asphalt 0 ft / 0 m 253 ft / 77 m
33 151 ft / 46 m 6,962 ft / 2,122 m 347.12° 335.07° Asphalt 351 ft / 107 m 0 ft / 0 m

Approach Navaids

Runway Type Ident Frequency Range Bearing (true) Bearing (mag) Slope Elevation
08 Localiser IBUR 109.50 MHz 18 nm / 33 km 90.84° 78.79° - 726 ft / 221 m (AMSL)
08 Glidescope IBUR 109.50 MHz 10 nm / 19 km 90.93° 78.88° 3.00° 720 ft / 219 m (AMSL)